sensor_id;sensor_type;location;lat;lon;timestamp;temperature;humidity
24217;DHT22;12356;49.386;8.688;2023-12-28T00:00:43;9.10;2.90
24217;DHT22;12356;49.386;8.688;2023-12-28T00:03:14;9.10;4.00
24217;DHT22;12356;49.386;8.688;2023-12-28T00:05:44;9.10;4.30
24217;DHT22;12356;49.386;8.688;2023-12-28T00:08:15;9.20;3.40
24217;DHT22;12356;49.386;8.688;2023-12-28T00:10:45;9.20;2.00
24217;DHT22;12356;49.386;8.688;2023-12-28T00:13:16;9.10;3.00
24217;DHT22;12356;49.386;8.688;2023-12-28T00:15:47;9.10;2.50
24217;DHT22;12356;49.386;8.688;2023-12-28T00:18:17;9.20;1.70
24217;DHT22;12356;49.386;8.688;2023-12-28T00:20:48;9.10;1.80
24217;DHT22;12356;49.386;8.688;2023-12-28T00:23:18;9.20;1.60
24217;DHT22;12356;49.386;8.688;2023-12-28T00:25:50;9.10;1.90
24217;DHT22;12356;49.386;8.688;2023-12-28T00:28:21;9.10;2.00
24217;DHT22;12356;49.386;8.688;2023-12-28T00:30:51;9.00;3.40
24217;DHT22;12356;49.386;8.688;2023-12-28T00:33:22;9.10;2.30
24217;DHT22;12356;49.386;8.688;2023-12-28T00:35:53;9.10;1.90
24217;DHT22;12356;49.386;8.688;2023-12-28T00:38:23;9.10;1.30
24217;DHT22;12356;49.386;8.688;2023-12-28T00:40:54;9.10;1.00
24217;DHT22;12356;49.386;8.688;2023-12-28T00:43:24;9.10;1.00
24217;DHT22;12356;49.386;8.688;2023-12-28T00:45:55;9.10;1.00
24217;DHT22;12356;49.386;8.688;2023-12-28T00:48:25;9.20;1.00
24217;DHT22;12356;49.386;8.688;2023-12-28T00:50:56;9.20;1.00
24217;DHT22;12356;49.386;8.688;2023-12-28T00:53:29;9.20;1.00
24217;DHT22;12356;49.386;8.688;2023-12-28T00:56:00;9.20;1.00
24217;DHT22;12356;49.386;8.688;2023-12-28T00:58:30;9.30;1.00
24217;DHT22;12356;49.386;8.688;2023-12-28T01:01:01;9.30;1.00
24217;DHT22;12356;49.386;8.688;2023-12-28T01:03:31;9.20;1.00
24217;DHT22;12356;49.386;8.688;2023-12-28T01:06:02;9.20;1.00
24217;DHT22;12356;49.386;8.688;2023-12-28T01:08:33;9.20;1.00
24217;DHT22;12356;49.386;8.688;2023-12-28T01:11:06;9.10;1.00
24217;DHT22;12356;49.386;8.688;2023-12-28T01:13:37;9.10;1.00
24217;DHT22;12356;49.386;8.688;2023-12-28T01:16:07;9.20;1.00
24217;DHT22;12356;49.386;8.688;2023-12-28T01:18:38;9.20;1.00
24217;DHT22;12356;49.386;8.688;2023-12-28T01:21:08;9.20;1.00
24217;DHT22;12356;49.386;8.688;2023-12-28T01:23:39;9.20;1.00
24217;DHT22;12356;49.386;8.688;2023-12-28T01:26:15;9.20;1.00
24217;DHT22;12356;49.386;8.688;2023-12-28T01:28:47;9.20;1.00
24217;DHT22;12356;49.386;8.688;2023-12-28T01:31:18;9.20;1.00
24217;DHT22;12356;49.386;8.688;2023-12-28T01:33:48;9.10;1.00
24217;DHT22;12356;49.386;8.688;2023-12-28T01:36:20;9.20;1.00
24217;DHT22;12356;49.386;8.688;2023-12-28T01:38:50;9.20;1.00
24217;DHT22;12356;49.386;8.688;2023-12-28T01:41:21;9.30;1.00
24217;DHT22;12356;49.386;8.688;2023-12-28T01:43:52;9.40;1.00
24217;DHT22;12356;49.386;8.688;2023-12-28T01:46:22;9.40;1.00
24217;DHT22;12356;49.386;8.688;2023-12-28T01:48:53;9.40;1.00
24217;DHT22;12356;49.386;8.688;2023-12-28T01:51:24;9.50;1.00
24217;DHT22;12356;49.386;8.688;2023-12-28T01:53:55;9.60;1.00
24217;DHT22;12356;49.386;8.688;2023-12-28T01:56:27;9.60;1.00
24217;DHT22;12356;49.386;8.688;2023-12-28T01:58:59;9.70;1.00
24217;DHT22;12356;49.386;8.688;2023-12-28T02:01:30;9.70;1.00
24217;DHT22;12356;49.386;8.688;2023-12-28T02:04:01;9.80;1.00
24217;DHT22;12356;49.386;8.688;2023-12-28T02:06:31;9.90;1.00
24217;DHT22;12356;49.386;8.688;2023-12-28T02:09:02;9.90;1.00
24217;DHT22;12356;49.386;8.688;2023-12-28T02:11:33;9.90;1.00
24217;DHT22;12356;49.386;8.688;2023-12-28T02:14:03;9.90;1.00
24217;DHT22;12356;49.386;8.688;2023-12-28T02:16:39;10.00;1.00
24217;DHT22;12356;49.386;8.688;2023-12-28T02:19:24;9.90;1.00
24217;DHT22;12356;49.386;8.688;2023-12-28T02:21:56;9.90;1.00
24217;DHT22;12356;49.386;8.688;2023-12-28T02:24:29;9.90;1.00
24217;DHT22;12356;49.386;8.688;2023-12-28T02:26:59;9.90;1.00
24217;DHT22;12356;49.386;8.688;2023-12-28T02:29:30;9.90;1.00
24217;DHT22;12356;49.386;8.688;2023-12-28T02:32:05;9.90;1.00
24217;DHT22;12356;49.386;8.688;2023-12-28T02:34:40;9.90;1.00
24217;DHT22;12356;49.386;8.688;2023-12-28T02:37:16;9.90;1.00
24217;DHT22;12356;49.386;8.688;2023-12-28T02:39:49;9.90;1.00
24217;DHT22;12356;49.386;8.688;2023-12-28T02:42:21;9.80;1.00
24217;DHT22;12356;49.386;8.688;2023-12-28T02:44:51;9.80;1.00
24217;DHT22;12356;49.386;8.688;2023-12-28T02:47:22;9.90;1.00
24217;DHT22;12356;49.386;8.688;2023-12-28T02:49:52;9.90;1.00
24217;DHT22;12356;49.386;8.688;2023-12-28T02:52:23;9.90;1.00
24217;DHT22;12356;49.386;8.688;2023-12-28T02:54:54;10.00;1.00
24217;DHT22;12356;49.386;8.688;2023-12-28T02:57:24;10.00;1.00
24217;DHT22;12356;49.386;8.688;2023-12-28T02:59:55;10.00;1.00
24217;DHT22;12356;49.386;8.688;2023-12-28T03:02:27;10.00;1.00
24217;DHT22;12356;49.386;8.688;2023-12-28T03:04:57;10.00;1.00
24217;DHT22;12356;49.386;8.688;2023-12-28T03:07:28;10.00;1.00
24217;DHT22;12356;49.386;8.688;2023-12-28T03:09:59;9.90;1.00
24217;DHT22;12356;49.386;8.688;2023-12-28T03:12:30;9.90;1.00
24217;DHT22;12356;49.386;8.688;2023-12-28T03:15:00;10.00;1.00
24217;DHT22;12356;49.386;8.688;2023-12-28T03:17:31;9.90;1.00
24217;DHT22;12356;49.386;8.688;2023-12-28T03:20:03;10.00;1.00
24217;DHT22;12356;49.386;8.688;2023-12-28T03:22:34;10.00;1.00
24217;DHT22;12356;49.386;8.688;2023-12-28T03:25:05;10.10;1.00
24217;DHT22;12356;49.386;8.688;2023-12-28T03:27:36;10.10;1.00
24217;DHT22;12356;49.386;8.688;2023-12-28T03:30:07;10.10;1.00
24217;DHT22;12356;49.386;8.688;2023-12-28T03:32:37;10.10;1.00
24217;DHT22;12356;49.386;8.688;2023-12-28T03:35:08;10.10;1.00
24217;DHT22;12356;49.386;8.688;2023-12-28T03:37:39;10.10;1.00
24217;DHT22;12356;49.386;8.688;2023-12-28T03:40:10;10.10;1.00
24217;DHT22;12356;49.386;8.688;2023-12-28T03:42:41;10.10;1.00
24217;DHT22;12356;49.386;8.688;2023-12-28T03:45:12;10.10;1.00
24217;DHT22;12356;49.386;8.688;2023-12-28T03:47:42;10.10;1.00
24217;DHT22;12356;49.386;8.688;2023-12-28T03:50:13;10.10;1.00
24217;DHT22;12356;49.386;8.688;2023-12-28T03:52:43;10.10;1.00
24217;DHT22;12356;49.386;8.688;2023-12-28T03:55:14;10.10;1.00
24217;DHT22;12356;49.386;8.688;2023-12-28T03:57:45;10.10;1.00
24217;DHT22;12356;49.386;8.688;2023-12-28T04:00:17;10.10;1.00
24217;DHT22;12356;49.386;8.688;2023-12-28T04:02:48;10.10;1.00
24217;DHT22;12356;49.386;8.688;2023-12-28T04:05:18;10.10;1.00
24217;DHT22;12356;49.386;8.688;2023-12-28T04:07:49;10.10;1.00
24217;DHT22;12356;49.386;8.688;2023-12-28T04:10:29;10.10;1.00
24217;DHT22;12356;49.386;8.688;2023-12-28T04:13:03;10.10;1.00
24217;DHT22;12356;49.386;8.688;2023-12-28T04:15:34;10.10;1.00
24217;DHT22;12356;49.386;8.688;2023-12-28T04:18:04;10.10;1.00
24217;DHT22;12356;49.386;8.688;2023-12-28T04:20:35;10.10;1.00
24217;DHT22;12356;49.386;8.688;2023-12-28T04:23:05;10.20;2.20
24217;DHT22;12356;49.386;8.688;2023-12-28T04:25:36;10.20;3.80
24217;DHT22;12356;49.386;8.688;2023-12-28T04:28:07;10.20;5.60
24217;DHT22;12356;49.386;8.688;2023-12-28T04:30:37;10.20;6.40
24217;DHT22;12356;49.386;8.688;2023-12-28T04:33:08;10.20;7.20
24217;DHT22;12356;49.386;8.688;2023-12-28T04:35:38;10.20;7.00
24217;DHT22;12356;49.386;8.688;2023-12-28T04:38:09;10.20;7.30
24217;DHT22;12356;49.386;8.688;2023-12-28T04:40:39;10.30;8.80
24217;DHT22;12356;49.386;8.688;2023-12-28T04:43:10;10.30;9.10
24217;DHT22;12356;49.386;8.688;2023-12-28T04:45:41;10.20;8.00
24217;DHT22;12356;49.386;8.688;2023-12-28T04:48:11;10.30;8.50
24217;DHT22;12356;49.386;8.688;2023-12-28T04:50:42;10.20;9.60
24217;DHT22;12356;49.386;8.688;2023-12-28T04:53:12;10.20;11.00
24217;DHT22;12356;49.386;8.688;2023-12-28T04:55:43;10.20;13.10
24217;DHT22;12356;49.386;8.688;2023-12-28T04:58:13;10.30;15.10
24217;DHT22;12356;49.386;8.688;2023-12-28T05:00:44;10.30;25.70
24217;DHT22;12356;49.386;8.688;2023-12-28T05:03:15;10.30;34.30
24217;DHT22;12356;49.386;8.688;2023-12-28T05:05:45;10.20;40.90
24217;DHT22;12356;49.386;8.688;2023-12-28T05:08:16;10.20;44.70
24217;DHT22;12356;49.386;8.688;2023-12-28T05:10:47;10.20;48.20
24217;DHT22;12356;49.386;8.688;2023-12-28T05:13:17;10.20;51.50
24217;DHT22;12356;49.386;8.688;2023-12-28T05:15:48;10.10;52.50
24217;DHT22;12356;49.386;8.688;2023-12-28T05:18:18;10.10;53.70
24217;DHT22;12356;49.386;8.688;2023-12-28T05:20:49;10.10;55.00
24217;DHT22;12356;49.386;8.688;2023-12-28T05:23:19;10.00;56.20
24217;DHT22;12356;49.386;8.688;2023-12-28T05:25:50;10.00;57.40
24217;DHT22;12356;49.386;8.688;2023-12-28T05:28:20;10.00;57.20
24217;DHT22;12356;49.386;8.688;2023-12-28T05:30:51;10.00;57.70
24217;DHT22;12356;49.386;8.688;2023-12-28T05:33:21;10.00;58.50
24217;DHT22;12356;49.386;8.688;2023-12-28T05:35:53;10.00;58.70
24217;DHT22;12356;49.386;8.688;2023-12-28T05:38:23;10.00;58.20
24217;DHT22;12356;49.386;8.688;2023-12-28T05:40:54;10.00;58.50
24217;DHT22;12356;49.386;8.688;2023-12-28T05:43:25;10.00;57.50
24217;DHT22;12356;49.386;8.688;2023-12-28T05:45:56;10.00;56.50
24217;DHT22;12356;49.386;8.688;2023-12-28T05:48:26;10.00;56.40
24217;DHT22;12356;49.386;8.688;2023-12-28T05:50:57;9.90;55.80
24217;DHT22;12356;49.386;8.688;2023-12-28T05:53:28;9.90;54.70
24217;DHT22;12356;49.386;8.688;2023-12-28T05:56:00;10.00;53.00
24217;DHT22;12356;49.386;8.688;2023-12-28T05:58:34;9.90;53.40
24217;DHT22;12356;49.386;8.688;2023-12-28T06:01:05;9.90;53.10
24217;DHT22;12356;49.386;8.688;2023-12-28T06:03:35;9.90;53.30
24217;DHT22;12356;49.386;8.688;2023-12-28T06:06:06;9.90;53.10
24217;DHT22;12356;49.386;8.688;2023-12-28T06:08:36;9.90;52.80
24217;DHT22;12356;49.386;8.688;2023-12-28T06:11:07;9.80;52.10
24217;DHT22;12356;49.386;8.688;2023-12-28T06:13:37;9.80;53.00
24217;DHT22;12356;49.386;8.688;2023-12-28T06:16:09;9.90;53.40
24217;DHT22;12356;49.386;8.688;2023-12-28T06:18:39;9.90;53.30
24217;DHT22;12356;49.386;8.688;2023-12-28T06:21:10;9.90;53.00
24217;DHT22;12356;49.386;8.688;2023-12-28T06:23:40;9.90;53.10
24217;DHT22;12356;49.386;8.688;2023-12-28T06:26:11;10.00;51.20
24217;DHT22;12356;49.386;8.688;2023-12-28T06:28:42;10.00;51.20
24217;DHT22;12356;49.386;8.688;2023-12-28T06:31:12;10.00;51.80
24217;DHT22;12356;49.386;8.688;2023-12-28T06:33:43;10.00;51.50
24217;DHT22;12356;49.386;8.688;2023-12-28T06:36:14;10.00;51.60
24217;DHT22;12356;49.386;8.688;2023-12-28T06:38:44;10.00;52.20
24217;DHT22;12356;49.386;8.688;2023-12-28T06:41:15;10.00;51.60
24217;DHT22;12356;49.386;8.688;2023-12-28T06:43:46;10.00;51.00
24217;DHT22;12356;49.386;8.688;2023-12-28T06:46:17;10.00;51.40
24217;DHT22;12356;49.386;8.688;2023-12-28T06:48:48;10.00;50.50
24217;DHT22;12356;49.386;8.688;2023-12-28T06:51:19;10.00;50.60
24217;DHT22;12356;49.386;8.688;2023-12-28T06:53:50;10.00;50.80
24217;DHT22;12356;49.386;8.688;2023-12-28T06:56:21;10.00;50.70
24217;DHT22;12356;49.386;8.688;2023-12-28T06:58:51;10.00;51.20
24217;DHT22;12356;49.386;8.688;2023-12-28T07:01:22;10.00;51.20
24217;DHT22;12356;49.386;8.688;2023-12-28T07:03:52;10.00;51.70
24217;DHT22;12356;49.386;8.688;2023-12-28T07:06:23;10.00;52.40
24217;DHT22;12356;49.386;8.688;2023-12-28T07:08:54;10.00;52.40
24217;DHT22;12356;49.386;8.688;2023-12-28T07:11:24;10.00;53.00
24217;DHT22;12356;49.386;8.688;2023-12-28T07:13:57;10.00;54.00
24217;DHT22;12356;49.386;8.688;2023-12-28T07:16:27;10.10;54.20
24217;DHT22;12356;49.386;8.688;2023-12-28T07:18:58;10.10;53.70
24217;DHT22;12356;49.386;8.688;2023-12-28T07:21:29;10.10;53.60
24217;DHT22;12356;49.386;8.688;2023-12-28T07:23:59;10.10;53.80
24217;DHT22;12356;49.386;8.688;2023-12-28T07:26:30;10.10;54.00
24217;DHT22;12356;49.386;8.688;2023-12-28T07:29:01;10.10;54.60
24217;DHT22;12356;49.386;8.688;2023-12-28T07:31:32;10.10;54.70
24217;DHT22;12356;49.386;8.688;2023-12-28T07:34:02;10.10;54.70
24217;DHT22;12356;49.386;8.688;2023-12-28T07:36:33;10.10;55.30
24217;DHT22;12356;49.386;8.688;2023-12-28T07:39:04;10.10;55.40
24217;DHT22;12356;49.386;8.688;2023-12-28T07:41:34;10.10;55.70
24217;DHT22;12356;49.386;8.688;2023-12-28T07:44:05;10.20;56.30
24217;DHT22;12356;49.386;8.688;2023-12-28T07:46:35;10.10;56.10
24217;DHT22;12356;49.386;8.688;2023-12-28T07:49:06;10.20;56.30
24217;DHT22;12356;49.386;8.688;2023-12-28T07:51:36;10.20;56.40
24217;DHT22;12356;49.386;8.688;2023-12-28T07:54:07;10.20;56.20
24217;DHT22;12356;49.386;8.688;2023-12-28T07:56:38;10.20;56.30
24217;DHT22;12356;49.386;8.688;2023-12-28T07:59:08;10.20;56.60
24217;DHT22;12356;49.386;8.688;2023-12-28T08:01:39;10.20;57.20
24217;DHT22;12356;49.386;8.688;2023-12-28T08:04:10;10.30;56.80
24217;DHT22;12356;49.386;8.688;2023-12-28T08:06:40;10.30;56.50
24217;DHT22;12356;49.386;8.688;2023-12-28T08:09:11;10.30;56.90
24217;DHT22;12356;49.386;8.688;2023-12-28T08:11:41;10.30;57.10
24217;DHT22;12356;49.386;8.688;2023-12-28T08:14:12;10.30;57.20
24217;DHT22;12356;49.386;8.688;2023-12-28T08:16:43;10.30;57.30
24217;DHT22;12356;49.386;8.688;2023-12-28T08:19:13;10.30;57.30
24217;DHT22;12356;49.386;8.688;2023-12-28T08:21:44;10.40;57.50
24217;DHT22;12356;49.386;8.688;2023-12-28T08:24:15;10.40;57.10
24217;DHT22;12356;49.386;8.688;2023-12-28T08:26:46;10.40;56.70
24217;DHT22;12356;49.386;8.688;2023-12-28T08:29:17;10.40;57.30
24217;DHT22;12356;49.386;8.688;2023-12-28T08:31:48;10.40;57.40
24217;DHT22;12356;49.386;8.688;2023-12-28T08:34:19;10.40;57.70
24217;DHT22;12356;49.386;8.688;2023-12-28T08:36:49;10.40;57.80
24217;DHT22;12356;49.386;8.688;2023-12-28T08:39:20;10.40;58.40
24217;DHT22;12356;49.386;8.688;2023-12-28T08:41:51;10.40;58.60
24217;DHT22;12356;49.386;8.688;2023-12-28T08:44:21;10.40;58.50
24217;DHT22;12356;49.386;8.688;2023-12-28T08:46:52;10.40;59.00
24217;DHT22;12356;49.386;8.688;2023-12-28T08:49:22;10.40;58.90
24217;DHT22;12356;49.386;8.688;2023-12-28T08:51:53;10.40;59.10
24217;DHT22;12356;49.386;8.688;2023-12-28T08:54:23;10.40;59.10
24217;DHT22;12356;49.386;8.688;2023-12-28T08:56:54;10.40;59.50
24217;DHT22;12356;49.386;8.688;2023-12-28T08:59:25;10.40;59.90
24217;DHT22;12356;49.386;8.688;2023-12-28T09:01:55;10.40;59.90
24217;DHT22;12356;49.386;8.688;2023-12-28T09:04:26;10.50;60.00
24217;DHT22;12356;49.386;8.688;2023-12-28T09:06:56;10.40;59.90
24217;DHT22;12356;49.386;8.688;2023-12-28T09:09:27;10.40;59.90
24217;DHT22;12356;49.386;8.688;2023-12-28T09:11:57;10.50;60.00
24217;DHT22;12356;49.386;8.688;2023-12-28T09:14:28;10.50;60.40
24217;DHT22;12356;49.386;8.688;2023-12-28T09:16:59;10.50;60.30
24217;DHT22;12356;49.386;8.688;2023-12-28T09:19:29;10.50;60.30
24217;DHT22;12356;49.386;8.688;2023-12-28T09:22:00;10.50;60.20
24217;DHT22;12356;49.386;8.688;2023-12-28T09:24:30;10.50;60.30
24217;DHT22;12356;49.386;8.688;2023-12-28T09:27:01;10.50;60.90
24217;DHT22;12356;49.386;8.688;2023-12-28T09:29:31;10.50;61.30
24217;DHT22;12356;49.386;8.688;2023-12-28T09:32:02;10.50;61.10
24217;DHT22;12356;49.386;8.688;2023-12-28T09:34:33;10.50;61.20
24217;DHT22;12356;49.386;8.688;2023-12-28T09:37:04;10.40;61.80
24217;DHT22;12356;49.386;8.688;2023-12-28T09:39:34;10.40;61.60
24217;DHT22;12356;49.386;8.688;2023-12-28T09:42:14;10.40;61.80
24217;DHT22;12356;49.386;8.688;2023-12-28T09:44:47;10.40;61.80
24217;DHT22;12356;49.386;8.688;2023-12-28T09:47:17;10.40;62.00
24217;DHT22;12356;49.386;8.688;2023-12-28T09:49:48;10.40;62.90
24217;DHT22;12356;49.386;8.688;2023-12-28T09:52:19;10.40;63.40
24217;DHT22;12356;49.386;8.688;2023-12-28T09:54:50;10.40;64.00
24217;DHT22;12356;49.386;8.688;2023-12-28T09:57:21;10.30;64.70
24217;DHT22;12356;49.386;8.688;2023-12-28T09:59:52;10.30;65.60
24217;DHT22;12356;49.386;8.688;2023-12-28T10:02:22;10.30;66.50
24217;DHT22;12356;49.386;8.688;2023-12-28T10:04:53;10.20;67.40
24217;DHT22;12356;49.386;8.688;2023-12-28T10:07:24;10.30;68.10
24217;DHT22;12356;49.386;8.688;2023-12-28T10:09:54;10.30;69.00
24217;DHT22;12356;49.386;8.688;2023-12-28T10:12:25;10.20;69.50
24217;DHT22;12356;49.386;8.688;2023-12-28T10:14:58;10.20;69.60
24217;DHT22;12356;49.386;8.688;2023-12-28T10:17:28;10.20;70.20
24217;DHT22;12356;49.386;8.688;2023-12-28T10:19:59;10.30;70.30
24217;DHT22;12356;49.386;8.688;2023-12-28T10:22:35;10.30;69.60
24217;DHT22;12356;49.386;8.688;2023-12-28T10:25:07;10.30;69.40
24217;DHT22;12356;49.386;8.688;2023-12-28T10:27:39;10.30;69.60
24217;DHT22;12356;49.386;8.688;2023-12-28T10:30:11;10.30;69.20
24217;DHT22;12356;49.386;8.688;2023-12-28T10:32:41;10.30;69.10
24217;DHT22;12356;49.386;8.688;2023-12-28T10:35:12;10.40;68.40
24217;DHT22;12356;49.386;8.688;2023-12-28T10:37:43;10.40;68.60
24217;DHT22;12356;49.386;8.688;2023-12-28T10:40:14;10.40;68.40
24217;DHT22;12356;49.386;8.688;2023-12-28T10:43:04;10.40;67.10
24217;DHT22;12356;49.386;8.688;2023-12-28T10:45:37;10.40;66.10
24217;DHT22;12356;49.386;8.688;2023-12-28T10:48:11;10.40;66.00
24217;DHT22;12356;49.386;8.688;2023-12-28T10:50:46;10.40;65.30
24217;DHT22;12356;49.386;8.688;2023-12-28T10:53:21;10.50;62.30
24217;DHT22;12356;49.386;8.688;2023-12-28T11:02:16;10.30;51.00
24217;DHT22;12356;49.386;8.688;2023-12-28T11:04:53;10.40;51.10
24217;DHT22;12356;49.386;8.688;2023-12-28T11:07:26;10.40;50.10
24217;DHT22;12356;49.386;8.688;2023-12-28T11:10:03;10.30;47.90
24217;DHT22;12356;49.386;8.688;2023-12-28T11:12:35;10.30;45.90
24217;DHT22;12356;49.386;8.688;2023-12-28T11:15:08;10.30;47.10
24217;DHT22;12356;49.386;8.688;2023-12-28T11:17:40;10.30;47.00
24217;DHT22;12356;49.386;8.688;2023-12-28T11:20:12;10.30;46.60
24217;DHT22;12356;49.386;8.688;2023-12-28T11:22:43;10.30;46.70
24217;DHT22;12356;49.386;8.688;2023-12-28T11:25:18;10.30;45.50
24217;DHT22;12356;49.386;8.688;2023-12-28T11:27:49;10.30;45.00
24217;DHT22;12356;49.386;8.688;2023-12-28T11:30:19;10.30;44.90
24217;DHT22;12356;49.386;8.688;2023-12-28T11:32:50;10.30;44.60
24217;DHT22;12356;49.386;8.688;2023-12-28T11:35:43;10.30;46.40
24217;DHT22;12356;49.386;8.688;2023-12-28T11:38:17;10.30;47.60
24217;DHT22;12356;49.386;8.688;2023-12-28T11:40:48;10.30;49.50
24217;DHT22;12356;49.386;8.688;2023-12-28T11:43:21;10.30;51.80
24217;DHT22;12356;49.386;8.688;2023-12-28T11:45:55;10.30;53.40
24217;DHT22;12356;49.386;8.688;2023-12-28T11:48:26;10.30;54.00
24217;DHT22;12356;49.386;8.688;2023-12-28T11:50:59;10.20;55.10
24217;DHT22;12356;49.386;8.688;2023-12-28T11:53:29;10.20;56.20
24217;DHT22;12356;49.386;8.688;2023-12-28T11:56:00;10.20;57.00
24217;DHT22;12356;49.386;8.688;2023-12-28T11:58:32;10.20;57.00
24217;DHT22;12356;49.386;8.688;2023-12-28T12:01:04;10.20;56.50
24217;DHT22;12356;49.386;8.688;2023-12-28T12:03:35;10.10;57.80
24217;DHT22;12356;49.386;8.688;2023-12-28T12:06:05;10.10;58.10
24217;DHT22;12356;49.386;8.688;2023-12-28T12:08:37;10.10;57.80
24217;DHT22;12356;49.386;8.688;2023-12-28T12:11:07;10.00;59.50
24217;DHT22;12356;49.386;8.688;2023-12-28T12:13:38;10.00;60.60
24217;DHT22;12356;49.386;8.688;2023-12-28T12:16:09;10.00;61.40
24217;DHT22;12356;49.386;8.688;2023-12-28T12:18:40;10.00;62.10
24217;DHT22;12356;49.386;8.688;2023-12-28T12:21:11;10.00;63.90
24217;DHT22;12356;49.386;8.688;2023-12-28T12:23:42;10.00;65.00
24217;DHT22;12356;49.386;8.688;2023-12-28T12:26:13;9.90;66.80
24217;DHT22;12356;49.386;8.688;2023-12-28T12:28:44;9.90;68.50
24217;DHT22;12356;49.386;8.688;2023-12-28T12:31:15;9.90;69.10
24217;DHT22;12356;49.386;8.688;2023-12-28T12:33:46;9.90;69.60
24217;DHT22;12356;49.386;8.688;2023-12-28T12:36:17;9.90;70.70
24217;DHT22;12356;49.386;8.688;2023-12-28T12:38:48;9.90;70.10
24217;DHT22;12356;49.386;8.688;2023-12-28T12:41:18;9.90;70.80
24217;DHT22;12356;49.386;8.688;2023-12-28T12:43:49;9.90;71.80
24217;DHT22;12356;49.386;8.688;2023-12-28T12:46:20;9.90;72.60
24217;DHT22;12356;49.386;8.688;2023-12-28T12:48:58;9.90;73.50
24217;DHT22;12356;49.386;8.688;2023-12-28T12:51:28;9.90;74.00
24217;DHT22;12356;49.386;8.688;2023-12-28T12:54:00;9.90;74.20
24217;DHT22;12356;49.386;8.688;2023-12-28T12:56:31;9.90;74.60
24217;DHT22;12356;49.386;8.688;2023-12-28T12:59:02;9.90;76.00
24217;DHT22;12356;49.386;8.688;2023-12-28T13:01:34;9.90;76.80
24217;DHT22;12356;49.386;8.688;2023-12-28T13:04:06;9.90;77.30
24217;DHT22;12356;49.386;8.688;2023-12-28T13:06:37;9.90;77.60
24217;DHT22;12356;49.386;8.688;2023-12-28T13:09:09;10.00;76.70
24217;DHT22;12356;49.386;8.688;2023-12-28T13:11:41;10.00;76.80
24217;DHT22;12356;49.386;8.688;2023-12-28T13:14:12;10.00;77.30
24217;DHT22;12356;49.386;8.688;2023-12-28T13:16:42;10.00;77.30
24217;DHT22;12356;49.386;8.688;2023-12-28T13:19:13;10.00;77.50
24217;DHT22;12356;49.386;8.688;2023-12-28T13:21:43;10.00;78.20
24217;DHT22;12356;49.386;8.688;2023-12-28T13:24:14;10.00;78.80
24217;DHT22;12356;49.386;8.688;2023-12-28T13:26:45;10.00;79.10
24217;DHT22;12356;49.386;8.688;2023-12-28T13:29:15;10.00;79.60
24217;DHT22;12356;49.386;8.688;2023-12-28T13:31:46;10.00;80.50
24217;DHT22;12356;49.386;8.688;2023-12-28T13:34:20;9.90;81.60
24217;DHT22;12356;49.386;8.688;2023-12-28T13:36:51;9.90;82.10
24217;DHT22;12356;49.386;8.688;2023-12-28T13:39:21;10.00;81.70
24217;DHT22;12356;49.386;8.688;2023-12-28T13:41:52;10.00;82.30
24217;DHT22;12356;49.386;8.688;2023-12-28T13:44:22;10.00;82.60
24217;DHT22;12356;49.386;8.688;2023-12-28T13:46:53;10.00;82.40
24217;DHT22;12356;49.386;8.688;2023-12-28T13:49:24;10.00;83.00
24217;DHT22;12356;49.386;8.688;2023-12-28T13:51:56;10.00;83.00
24217;DHT22;12356;49.386;8.688;2023-12-28T13:54:26;10.00;83.10
24217;DHT22;12356;49.386;8.688;2023-12-28T13:56:58;10.00;83.50
24217;DHT22;12356;49.386;8.688;2023-12-28T13:59:30;10.10;83.70
24217;DHT22;12356;49.386;8.688;2023-12-28T14:02:00;10.10;83.30
24217;DHT22;12356;49.386;8.688;2023-12-28T14:04:31;10.10;83.20
24217;DHT22;12356;49.386;8.688;2023-12-28T14:07:02;10.10;84.00
24217;DHT22;12356;49.386;8.688;2023-12-28T14:09:33;10.10;83.40
24217;DHT22;12356;49.386;8.688;2023-12-28T14:12:06;10.10;83.10
24217;DHT22;12356;49.386;8.688;2023-12-28T14:14:37;10.10;83.00
24217;DHT22;12356;49.386;8.688;2023-12-28T14:17:07;10.10;82.20
24217;DHT22;12356;49.386;8.688;2023-12-28T14:19:38;10.10;81.50
24217;DHT22;12356;49.386;8.688;2023-12-28T14:22:09;10.00;81.20
24217;DHT22;12356;49.386;8.688;2023-12-28T14:24:41;10.00;80.90
24217;DHT22;12356;49.386;8.688;2023-12-28T14:27:11;10.00;81.30
24217;DHT22;12356;49.386;8.688;2023-12-28T14:29:42;10.00;80.90
24217;DHT22;12356;49.386;8.688;2023-12-28T14:32:13;10.00;81.00
24217;DHT22;12356;49.386;8.688;2023-12-28T14:34:44;10.00;81.20
24217;DHT22;12356;49.386;8.688;2023-12-28T14:37:15;10.00;81.50
24217;DHT22;12356;49.386;8.688;2023-12-28T14:39:45;10.00;81.20
24217;DHT22;12356;49.386;8.688;2023-12-28T14:42:16;10.00;81.40
24217;DHT22;12356;49.386;8.688;2023-12-28T14:44:47;10.00;81.40
24217;DHT22;12356;49.386;8.688;2023-12-28T14:47:18;10.00;81.30
24217;DHT22;12356;49.386;8.688;2023-12-28T14:49:49;10.00;81.10
24217;DHT22;12356;49.386;8.688;2023-12-28T14:52:23;10.00;81.50
24217;DHT22;12356;49.386;8.688;2023-12-28T14:54:54;10.00;81.70
24217;DHT22;12356;49.386;8.688;2023-12-28T14:57:25;10.00;81.50
24217;DHT22;12356;49.386;8.688;2023-12-28T14:59:56;10.00;81.10
24217;DHT22;12356;49.386;8.688;2023-12-28T15:02:27;10.00;80.90
24217;DHT22;12356;49.386;8.688;2023-12-28T15:04:57;10.10;80.90
24217;DHT22;12356;49.386;8.688;2023-12-28T15:07:29;10.10;79.60
24217;DHT22;12356;49.386;8.688;2023-12-28T15:10:00;10.00;79.80
24217;DHT22;12356;49.386;8.688;2023-12-28T15:12:31;10.10;79.50
24217;DHT22;12356;49.386;8.688;2023-12-28T15:15:02;10.10;79.40
24217;DHT22;12356;49.386;8.688;2023-12-28T15:17:33;10.10;79.80
24217;DHT22;12356;49.386;8.688;2023-12-28T15:20:04;10.10;79.20
24217;DHT22;12356;49.386;8.688;2023-12-28T15:22:35;10.10;79.10
24217;DHT22;12356;49.386;8.688;2023-12-28T15:25:06;10.10;78.60
24217;DHT22;12356;49.386;8.688;2023-12-28T15:27:37;10.10;78.60
24217;DHT22;12356;49.386;8.688;2023-12-28T15:30:08;10.10;78.60
24217;DHT22;12356;49.386;8.688;2023-12-28T15:32:40;10.00;78.70
24217;DHT22;12356;49.386;8.688;2023-12-28T15:35:13;10.00;79.10
24217;DHT22;12356;49.386;8.688;2023-12-28T15:37:44;10.00;79.20
24217;DHT22;12356;49.386;8.688;2023-12-28T15:40:15;10.00;79.40
24217;DHT22;12356;49.386;8.688;2023-12-28T15:42:46;10.10;79.10
24217;DHT22;12356;49.386;8.688;2023-12-28T15:45:16;10.00;78.60
24217;DHT22;12356;49.386;8.688;2023-12-28T15:47:47;10.00;78.70
24217;DHT22;12356;49.386;8.688;2023-12-28T15:50:17;10.00;78.30
24217;DHT22;12356;49.386;8.688;2023-12-28T15:52:48;10.00;79.10
24217;DHT22;12356;49.386;8.688;2023-12-28T15:55:18;10.00;78.90
24217;DHT22;12356;49.386;8.688;2023-12-28T15:57:49;10.00;78.90
24217;DHT22;12356;49.386;8.688;2023-12-28T16:00:20;10.00;78.40
24217;DHT22;12356;49.386;8.688;2023-12-28T16:02:51;10.00;77.50
24217;DHT22;12356;49.386;8.688;2023-12-28T16:05:22;10.10;77.30
24217;DHT22;12356;49.386;8.688;2023-12-28T16:07:52;10.10;77.10
24217;DHT22;12356;49.386;8.688;2023-12-28T16:10:23;10.00;77.10